04 Ocak 2012, Çarşamba 23:10:38

ATATÜRK HAVALİMANI SİS ALTINDA

Atatürk Havalimanı'ndan iniş ve kalkış yapacak uçaklar, havalimanını etkisi altına alan yoğun sis nedeniyle rötarlara maruz kalıyorlar.
  • 2012/01/05 06:20 LTBA 050620Z 26004KT 210V300 6000 FEW035 08/05 Q1017 NOSIG
  • Divert yok CAT III ILS APP var, sistemi getirenlere bir kez daha tesekkur dün gece adveksiyon-radyasyon tarzı bir sis yasadık ama mis gibi teker koyduk, bana mısın demedi kerata..CAT III olmasaydı Ankara -İzmir hareketli bir gece gecirecekti.. bustk
  • yolcularin sakin olmasi lazim zorunlu olmayanlar ucuslarini ertesi gune veya en uygun gune degirstirmeliler baska caresi yok.. belirli bir gorus mesafesi olmadan pilotlar ucumaz umarim insanlarimiz anlar anlamak zorundalar..
  • Nöbetçi yorumcular iş başında..Her habere yorum yazmak zorunda mısınız?
Atatürk Havalimanı'nı etkisi altına alan yoğun sis, iniş-kalkış yapacak uçakları olumsuz etkiliyor.

Yaklaşık 40 dakika önce hafif olarak kendini gösteren sis, bir anda görüş mesafesini neredeyse sıfıra indirdi.

Görüş mesafesinin oldukça düşmesi sonucu uçaklarda rötarlar olmaya başladı. Edinilen bilgilere göre sisin etkisini yitirmeye başlamasıyla uçuşlar normal olarak yapılabilecek.





©AirportHaber.com
ATATÜRK HAVALİMANI SİS ALTINDA

Facebook Yorum

Yorumlar Tüm Yorumlar (9)

Misafir ~ 5 yıl önce
2012/01/05 06:20 LTBA 050620Z 26004KT 210V300 6000 FEW035 08/05 Q1017 NOSIG

Yanıtla

Kalan karakter 1000
Misafir ~ 5 yıl önce
Divert yok CAT III ILS APP var, sistemi getirenlere bir kez daha tesekkur dün gece adveksiyon-radyasyon tarzı bir sis yasadık ama mis gibi teker koyduk, bana mısın demedi kerata..CAT III olmasaydı Ankara -İzmir hareketli bir gece gecirecekti.. bustk

Yanıtla

Kalan karakter 1000
Misafir ~ 5 yıl önce
yolcularin sakin olmasi lazim zorunlu olmayanlar ucuslarini ertesi gune veya en uygun gune degirstirmeliler baska caresi yok.. belirli bir gorus mesafesi olmadan pilotlar ucumaz umarim insanlarimiz anlar anlamak zorundalar..

Yanıtla

Kalan karakter 1000
Misafir ~ 5 yıl önce
Nöbetçi yorumcular iş başında..Her habere yorum yazmak zorunda mısınız?

Yanıtla

Kalan karakter 1000

Yorum Gönder

Kalan karakter 1000